createdAt,value
2018-10-09T00:02:03.642Z,11.40
2018-10-09T00:04:32.113Z,11.40
2018-10-09T00:07:00.582Z,11.40
2018-10-09T00:09:29.081Z,11.40
2018-10-09T00:11:57.559Z,11.30
2018-10-09T00:14:26.142Z,11.40
2018-10-09T00:16:54.599Z,11.40
2018-10-09T00:19:23.111Z,11.30
2018-10-09T00:21:51.608Z,11.40
2018-10-09T00:24:20.082Z,11.40
2018-10-09T00:26:48.546Z,11.40
2018-10-09T00:29:17.094Z,11.30
2018-10-09T00:31:45.578Z,11.30
2018-10-09T00:34:14.140Z,11.30
2018-10-09T00:36:42.622Z,11.30
2018-10-09T00:39:11.526Z,11.30
2018-10-09T00:41:40.081Z,11.30
2018-10-09T00:44:08.707Z,11.30
2018-10-09T00:46:37.194Z,11.30
2018-10-09T00:49:06.109Z,11.30
2018-10-09T00:51:34.618Z,11.30
2018-10-09T00:54:03.166Z,11.30
2018-10-09T00:56:31.717Z,11.20
2018-10-09T00:59:00.200Z,11.30
2018-10-09T01:01:28.734Z,11.30
2018-10-09T01:03:57.205Z,11.30
2018-10-09T01:06:25.858Z,11.30
2018-10-09T01:08:54.445Z,11.20
2018-10-09T01:11:22.990Z,11.20
2018-10-09T01:13:51.646Z,11.20
2018-10-09T01:16:20.130Z,11.20
2018-10-09T01:18:48.652Z,11.20
2018-10-09T01:21:17.167Z,11.20
2018-10-09T01:23:45.684Z,11.20
2018-10-09T01:26:14.137Z,11.20
2018-10-09T01:28:42.667Z,11.20
2018-10-09T01:31:11.177Z,11.20
2018-10-09T01:33:39.659Z,11.20
2018-10-09T01:36:08.197Z,11.20
2018-10-09T01:38:36.908Z,11.10
2018-10-09T01:41:05.471Z,11.10
2018-10-09T01:43:33.984Z,11.10
2018-10-09T01:46:02.450Z,11.10
2018-10-09T01:48:30.997Z,11.00
2018-10-09T01:50:59.529Z,11.10
2018-10-09T01:53:28.381Z,11.00
2018-10-09T01:55:56.866Z,11.00
2018-10-09T01:58:25.333Z,11.00
2018-10-09T02:00:53.854Z,11.00
2018-10-09T02:03:22.312Z,11.10
2018-10-09T02:05:50.865Z,11.00
2018-10-09T02:08:19.349Z,11.00
2018-10-09T02:10:48.015Z,11.00
2018-10-09T02:13:16.505Z,11.00
2018-10-09T02:15:45.004Z,11.00
2018-10-09T02:18:13.509Z,11.00
2018-10-09T02:20:42.011Z,11.00
2018-10-09T02:23:10.539Z,11.00
2018-10-09T02:25:39.009Z,11.00
2018-10-09T02:28:07.518Z,11.00
2018-10-09T02:30:36.130Z,11.00
2018-10-09T02:33:04.608Z,10.90
2018-10-09T02:35:33.150Z,10.90
2018-10-09T02:38:01.613Z,11.00
2018-10-09T02:40:30.155Z,10.90
2018-10-09T02:42:58.622Z,10.90
2018-10-09T02:45:27.308Z,11.00
2018-10-09T02:47:55.921Z,10.90
2018-10-09T02:50:24.486Z,11.00
2018-10-09T02:52:53.173Z,11.00
2018-10-09T02:55:21.758Z,11.00
2018-10-09T02:57:50.238Z,11.00
2018-10-09T03:00:18.753Z,11.00
2018-10-09T03:02:47.213Z,11.00
2018-10-09T03:05:16.091Z,11.00
2018-10-09T03:07:44.574Z,11.00
2018-10-09T03:10:13.047Z,11.00
2018-10-09T03:12:41.586Z,11.00
2018-10-09T03:15:10.094Z,11.00
2018-10-09T03:17:38.537Z,11.00
2018-10-09T03:20:07.106Z,11.00
2018-10-09T03:22:35.559Z,11.00
2018-10-09T03:25:04.168Z,11.00
2018-10-09T03:27:32.689Z,11.00
2018-10-09T03:30:01.197Z,11.00
2018-10-09T03:32:29.758Z,11.00
2018-10-09T03:34:58.225Z,11.00
2018-10-09T03:37:26.729Z,11.00
2018-10-09T03:39:55.186Z,11.00
2018-10-09T03:42:23.658Z,11.00
2018-10-09T03:44:52.206Z,11.00
2018-10-09T03:47:20.723Z,11.00
2018-10-09T03:49:49.244Z,11.00
2018-10-09T03:52:17.735Z,11.00
2018-10-09T03:54:46.265Z,10.90
2018-10-09T03:57:14.946Z,10.90
2018-10-09T03:59:43.449Z,10.90
2018-10-09T04:02:12.222Z,10.90
2018-10-09T04:04:40.731Z,10.90
2018-10-09T04:07:09.247Z,10.90
2018-10-09T04:09:37.807Z,10.80
2018-10-09T04:12:06.490Z,10.80
2018-10-09T04:14:34.985Z,10.80
2018-10-09T04:17:03.426Z,10.80
2018-10-09T04:19:31.965Z,10.80
2018-10-09T04:22:00.388Z,10.80
2018-10-09T04:24:28.866Z,10.70
2018-10-09T04:26:57.375Z,10.70
2018-10-09T04:29:25.858Z,10.60
2018-10-09T04:31:54.399Z,10.70
2018-10-09T04:34:22.879Z,10.70
2018-10-09T04:36:51.347Z,10.70
2018-10-09T04:39:19.797Z,10.70
2018-10-09T04:41:48.310Z,10.70
2018-10-09T04:44:16.759Z,10.70
2018-10-09T04:46:46.007Z,10.70
2018-10-09T04:49:14.512Z,10.70
2018-10-09T04:51:43.054Z,10.70
2018-10-09T04:54:11.681Z,10.60
2018-10-09T04:56:40.109Z,10.60
2018-10-09T04:59:08.590Z,10.60
2018-10-09T05:01:37.054Z,10.60
2018-10-09T05:04:05.529Z,10.60
2018-10-09T05:06:33.974Z,10.60
2018-10-09T05:09:02.527Z,10.50
2018-10-09T05:11:31.001Z,10.60
2018-10-09T05:13:59.451Z,10.60
2018-10-09T05:16:27.946Z,10.60
2018-10-09T05:18:56.430Z,10.60
2018-10-09T05:21:24.913Z,10.70
2018-10-09T05:23:53.378Z,10.70
2018-10-09T05:26:21.870Z,10.70
2018-10-09T05:28:50.386Z,10.70
2018-10-09T05:31:18.964Z,10.70
2018-10-09T05:33:47.406Z,10.70
2018-10-09T05:36:15.973Z,10.80
2018-10-09T05:38:44.787Z,10.80
2018-10-09T05:41:13.255Z,10.80
2018-10-09T05:43:41.703Z,10.80
2018-10-09T05:46:10.227Z,10.80
2018-10-09T05:48:38.717Z,10.90
2018-10-09T05:51:07.642Z,10.90
2018-10-09T05:53:36.190Z,10.90
2018-10-09T05:56:04.630Z,11.00
2018-10-09T05:58:33.133Z,11.00
2018-10-09T06:01:01.774Z,11.10
2018-10-09T06:03:30.363Z,11.20
2018-10-09T06:05:58.891Z,11.20
2018-10-09T06:08:27.385Z,11.30
2018-10-09T06:10:55.843Z,11.30
2018-10-09T06:13:24.343Z,11.30
2018-10-09T06:15:52.987Z,11.40
2018-10-09T06:18:21.645Z,11.40
2018-10-09T06:20:50.124Z,11.50
2018-10-09T06:23:18.707Z,11.50
2018-10-09T06:25:47.234Z,11.50
2018-10-09T06:28:15.724Z,11.50
2018-10-09T06:30:44.162Z,11.60
2018-10-09T06:33:12.663Z,11.60
2018-10-09T06:35:41.115Z,11.60
2018-10-09T06:38:09.682Z,11.60
2018-10-09T06:40:38.205Z,11.60
2018-10-09T06:43:06.706Z,11.70
2018-10-09T06:45:35.288Z,11.80
2018-10-09T06:48:03.754Z,11.70
2018-10-09T06:50:32.274Z,11.80
2018-10-09T06:53:00.741Z,12.10
2018-10-09T06:55:29.239Z,12.10
2018-10-09T06:57:57.743Z,12.20
2018-10-09T07:00:26.192Z,12.40
2018-10-09T07:02:54.740Z,12.40
2018-10-09T07:05:23.287Z,12.30
2018-10-09T07:07:51.844Z,12.30
2018-10-09T07:10:20.376Z,12.40
2018-10-09T07:12:49.070Z,12.60
2018-10-09T07:15:17.619Z,12.90
2018-10-09T07:17:46.163Z,15.10
2018-10-09T07:20:14.850Z,15.90
2018-10-09T07:22:43.501Z,15.20
2018-10-09T07:25:11.988Z,15.90
2018-10-09T07:27:40.479Z,16.40
2018-10-09T07:30:09.530Z,17.30
2018-10-09T07:32:38.079Z,21.00
2018-10-09T07:35:07.489Z,23.10
2018-10-09T07:37:36.065Z,24.20
2018-10-09T07:40:04.983Z,26.60
2018-10-09T07:42:33.586Z,25.40
2018-10-09T07:45:02.173Z,25.40
2018-10-09T07:47:30.629Z,27.00
2018-10-09T07:49:59.118Z,27.50
2018-10-09T07:52:28.006Z,26.70
2018-10-09T07:54:56.486Z,27.40
2018-10-09T07:57:25.045Z,28.10
2018-10-09T07:59:53.614Z,28.50
2018-10-09T08:02:22.222Z,28.40
2018-10-09T08:04:50.817Z,29.00
2018-10-09T08:07:19.239Z,28.20
2018-10-09T08:09:47.696Z,27.90
2018-10-09T08:12:16.198Z,29.30
2018-10-09T08:27:17.348Z,29.70
2018-10-09T08:29:46.592Z,32.30
2018-10-09T08:32:15.465Z,32.90
2018-10-09T08:34:44.148Z,33.20
2018-10-09T08:37:12.660Z,33.40
2018-10-09T08:39:41.174Z,33.40
2018-10-09T08:42:09.707Z,34.00
2018-10-09T08:44:38.493Z,33.40
2018-10-09T08:47:07.203Z,33.20
2018-10-09T08:49:35.928Z,33.90
2018-10-09T08:52:04.726Z,31.50
2018-10-09T08:54:33.121Z,29.10
2018-10-09T08:57:01.625Z,27.40
2018-10-09T08:59:30.108Z,25.90
2018-10-09T09:01:58.858Z,25.40
2018-10-09T09:04:27.378Z,24.90
2018-10-09T09:06:55.907Z,24.30
2018-10-09T09:09:24.427Z,23.40
2018-10-09T09:11:52.915Z,22.80
2018-10-09T09:14:21.408Z,22.10
2018-10-09T09:16:50.008Z,21.80
2018-10-09T09:19:18.536Z,22.10
2018-10-09T09:21:47.058Z,22.10
2018-10-09T09:24:15.902Z,22.30
2018-10-09T09:26:45.568Z,22.50
2018-10-09T09:29:13.904Z,22.50
2018-10-09T09:31:42.438Z,22.60
2018-10-09T09:34:10.957Z,21.70
2018-10-09T09:36:39.546Z,21.90
2018-10-09T09:39:09.699Z,21.80
2018-10-09T09:41:38.135Z,21.50
2018-10-09T09:44:06.886Z,21.70
2018-10-09T09:46:35.445Z,22.10
2018-10-09T09:49:04.129Z,22.20
2018-10-09T09:51:32.700Z,22.20
2018-10-09T09:54:01.249Z,22.20
2018-10-09T09:56:29.766Z,22.40
2018-10-09T09:58:59.044Z,22.60
2018-10-09T10:01:43.358Z,22.20
2018-10-09T10:04:12.942Z,22.20
2018-10-09T10:06:42.024Z,22.30
2018-10-09T10:09:11.167Z,22.40
2018-10-09T10:11:39.719Z,22.50
2018-10-09T10:14:08.975Z,22.50
2018-10-09T10:16:37.532Z,22.40
2018-10-09T10:19:06.308Z,22.00
2018-10-09T10:21:34.885Z,21.90
2018-10-09T10:24:03.540Z,21.80
2018-10-09T10:26:32.328Z,21.80
2018-10-09T10:29:00.912Z,21.80
2018-10-09T10:31:29.586Z,21.70
2018-10-09T10:33:58.122Z,21.60
2018-10-09T10:36:26.667Z,21.60
2018-10-09T10:38:55.183Z,21.70
2018-10-09T10:41:23.731Z,21.50
2018-10-09T10:43:52.211Z,21.30
2018-10-09T10:46:20.766Z,21.30
2018-10-09T10:48:56.764Z,21.20
2018-10-09T10:51:25.611Z,21.20
2018-10-09T10:53:54.199Z,21.00
2018-10-09T10:56:22.721Z,21.00
2018-10-09T10:58:51.335Z,21.10
2018-10-09T11:01:20.461Z,21.10
2018-10-09T11:03:49.103Z,21.00
2018-10-09T11:06:18.379Z,20.90
2018-10-09T11:08:47.784Z,21.00
2018-10-09T11:11:16.523Z,20.90
2018-10-09T11:13:45.736Z,20.90
2018-10-09T11:16:14.522Z,20.70
2018-10-09T11:18:43.203Z,20.70
2018-10-09T11:21:11.804Z,20.70
2018-10-09T11:23:40.346Z,20.70
2018-10-09T11:26:08.906Z,20.50
2018-10-09T11:28:37.658Z,20.40
2018-10-09T11:31:06.384Z,20.40
2018-10-09T11:33:34.942Z,20.40
2018-10-09T11:36:03.459Z,20.50
2018-10-09T11:38:31.963Z,20.30
2018-10-09T11:41:00.487Z,20.40
2018-10-09T11:43:29.002Z,20.30
2018-10-09T11:45:57.714Z,20.40
2018-10-09T11:48:26.335Z,20.40
2018-10-09T11:50:55.009Z,20.50
2018-10-09T11:53:23.579Z,20.60
2018-10-09T11:55:52.322Z,20.50
2018-10-09T11:58:21.007Z,20.50
2018-10-09T12:00:51.240Z,20.60
2018-10-09T12:03:19.752Z,20.60
2018-10-09T12:05:48.368Z,20.70
2018-10-09T12:08:16.815Z,20.60
2018-10-09T12:10:45.299Z,20.50
2018-10-09T12:13:13.888Z,20.30
2018-10-09T12:15:43.295Z,20.20
2018-10-09T12:18:11.980Z,20.40
2018-10-09T12:20:40.558Z,20.50
2018-10-09T12:23:09.087Z,20.50
2018-10-09T12:25:37.607Z,20.50
2018-10-09T12:28:06.137Z,20.60
2018-10-09T12:30:34.713Z,20.60
2018-10-09T12:33:03.276Z,20.60
2018-10-09T12:35:31.760Z,20.70
2018-10-09T12:38:00.488Z,20.60
2018-10-09T12:40:28.982Z,20.50
2018-10-09T12:42:57.625Z,20.40
2018-10-09T12:45:26.150Z,20.40
2018-10-09T12:47:54.850Z,20.50
2018-10-09T12:50:23.379Z,20.50
2018-10-09T12:52:51.931Z,20.60
2018-10-09T12:55:20.398Z,20.50
2018-10-09T12:57:48.928Z,20.40
2018-10-09T13:00:17.589Z,20.30
2018-10-09T13:02:46.082Z,20.30
2018-10-09T13:05:14.662Z,20.10
2018-10-09T13:07:43.281Z,20.20
2018-10-09T13:10:11.886Z,20.20
2018-10-09T13:12:40.428Z,20.30
2018-10-09T13:15:09.593Z,20.20
2018-10-09T13:17:38.937Z,20.10
2018-10-09T13:20:07.441Z,20.20
2018-10-09T13:22:36.311Z,20.10
2018-10-09T13:25:04.607Z,20.00
2018-10-09T13:27:33.195Z,19.90
2018-10-09T13:30:01.732Z,19.90
2018-10-09T13:32:30.216Z,19.80
2018-10-09T13:34:58.887Z,19.70
2018-10-09T13:37:27.368Z,19.80
2018-10-09T13:39:55.961Z,19.80
2018-10-09T13:42:24.473Z,19.80
2018-10-09T13:44:52.990Z,19.70
2018-10-09T13:47:21.897Z,19.80
2018-10-09T13:49:50.555Z,19.60
2018-10-09T13:52:19.089Z,19.60
2018-10-09T13:54:47.770Z,19.60
2018-10-09T13:57:16.576Z,19.60
2018-10-09T13:59:45.141Z,19.60
2018-10-09T14:02:13.634Z,19.50
2018-10-09T14:04:42.282Z,19.50
2018-10-09T14:07:10.782Z,19.40
2018-10-09T14:09:39.307Z,19.30
2018-10-09T14:12:07.815Z,19.30
2018-10-09T14:14:37.042Z,19.30
2018-10-09T14:17:05.822Z,19.40
2018-10-09T14:19:34.338Z,19.30
2018-10-09T14:22:02.854Z,19.40
2018-10-09T14:24:31.462Z,19.40
2018-10-09T14:27:00.003Z,19.40
2018-10-09T14:29:28.533Z,19.50
2018-10-09T14:31:57.146Z,19.40
2018-10-09T14:34:25.839Z,19.40
2018-10-09T14:36:54.352Z,19.30
2018-10-09T14:39:22.953Z,19.20
2018-10-09T14:41:51.455Z,19.20
2018-10-09T14:44:20.026Z,19.30
2018-10-09T14:46:48.615Z,19.20
2018-10-09T14:49:17.219Z,19.10
2018-10-09T14:51:45.802Z,19.00
2018-10-09T14:54:14.371Z,19.10
2018-10-09T14:56:42.851Z,18.90
2018-10-09T14:59:11.538Z,19.00
2018-10-09T15:01:40.507Z,18.90
2018-10-09T15:04:14.886Z,18.80
2018-10-09T15:09:22.074Z,18.80
2018-10-09T15:11:50.595Z,18.50
2018-10-09T15:14:19.087Z,18.40
2018-10-09T15:16:47.694Z,18.30
2018-10-09T15:19:16.488Z,18.20
2018-10-09T15:21:44.975Z,18.10
2018-10-09T15:24:13.469Z,18.00
2018-10-09T15:26:42.795Z,18.10
2018-10-09T15:29:11.423Z,18.00
2018-10-09T15:31:40.024Z,17.90
2018-10-09T15:34:08.560Z,17.90
2018-10-09T15:36:37.065Z,17.80
2018-10-09T15:39:08.802Z,17.80
2018-10-09T15:41:37.741Z,17.80
2018-10-09T15:44:06.774Z,17.80
2018-10-09T15:46:35.291Z,17.80
2018-10-09T15:49:04.352Z,17.70
2018-10-09T15:51:33.307Z,17.70
2018-10-09T15:54:02.291Z,17.60
2018-10-09T15:56:31.033Z,17.50
2018-10-09T15:58:59.747Z,17.50
2018-10-09T16:01:28.428Z,17.50
2018-10-09T16:03:57.372Z,17.40
2018-10-09T16:06:25.835Z,17.30
2018-10-09T16:08:54.423Z,17.30
2018-10-09T16:11:23.051Z,17.10
2018-10-09T16:13:51.766Z,17.10
2018-10-09T16:16:20.357Z,17.00
2018-10-09T16:18:48.887Z,17.00
2018-10-09T16:21:17.390Z,16.80
2018-10-09T16:23:46.561Z,16.80
2018-10-09T16:26:15.210Z,16.70
2018-10-09T16:28:43.795Z,16.60
2018-10-09T16:31:12.442Z,16.60
2018-10-09T16:33:41.043Z,16.60
2018-10-09T16:36:09.512Z,16.50
2018-10-09T16:38:38.082Z,16.40
2018-10-09T16:41:07.437Z,16.30
2018-10-09T16:43:36.261Z,16.30
2018-10-09T16:46:05.870Z,16.30
2018-10-09T16:48:35.218Z,16.30
2018-10-09T16:51:05.889Z,16.20
2018-10-09T16:53:35.134Z,16.20
2018-10-09T16:56:03.667Z,16.20
2018-10-09T16:58:32.217Z,16.10
2018-10-09T17:01:00.776Z,16.00
2018-10-09T17:03:29.316Z,16.00
2018-10-09T17:05:57.868Z,16.00
2018-10-09T17:08:26.417Z,15.90
2018-10-09T17:10:55.022Z,15.90
2018-10-09T17:13:23.662Z,15.80
2018-10-09T17:15:52.219Z,15.80
2018-10-09T17:18:20.725Z,15.70
2018-10-09T17:20:49.544Z,15.70
2018-10-09T17:23:18.019Z,15.60
2018-10-09T17:25:46.628Z,15.60
2018-10-09T17:28:15.097Z,15.60
2018-10-09T17:30:43.660Z,15.60
2018-10-09T17:33:12.395Z,15.50
2018-10-09T17:35:40.894Z,15.50
2018-10-09T17:38:09.603Z,15.40
2018-10-09T17:40:38.125Z,15.40
2018-10-09T17:43:06.970Z,15.30
2018-10-09T17:45:35.588Z,15.30
2018-10-09T17:48:04.206Z,15.30
2018-10-09T17:50:32.935Z,15.20
2018-10-09T17:53:02.034Z,15.20
2018-10-09T17:56:03.855Z,15.10
2018-10-09T17:58:32.626Z,15.10
2018-10-09T18:01:01.607Z,15.10
2018-10-09T18:03:30.367Z,15.00
2018-10-09T18:05:59.298Z,15.00
2018-10-09T18:08:27.945Z,14.90
2018-10-09T18:10:57.050Z,14.90
2018-10-09T18:13:25.670Z,14.90
2018-10-09T18:15:54.219Z,14.80
2018-10-09T18:18:22.930Z,14.80
2018-10-09T18:20:51.433Z,14.80
2018-10-09T18:23:21.080Z,14.70
2018-10-09T18:25:50.026Z,14.70
2018-10-09T18:28:18.564Z,14.70
2018-10-09T18:30:47.255Z,14.70
2018-10-09T18:33:15.961Z,14.70
2018-10-09T18:35:44.645Z,14.60
2018-10-09T18:38:13.796Z,14.60
2018-10-09T18:40:43.555Z,14.60
2018-10-09T18:43:12.306Z,14.60
2018-10-09T18:45:40.876Z,14.50
2018-10-09T18:48:09.617Z,14.50
2018-10-09T18:50:38.540Z,14.50
2018-10-09T18:53:07.150Z,14.40
2018-10-09T18:55:35.770Z,14.40
2018-10-09T18:58:04.334Z,14.40
2018-10-09T19:00:32.902Z,14.40
2018-10-09T19:03:01.454Z,14.30
2018-10-09T19:05:30.150Z,14.30
2018-10-09T19:07:58.788Z,14.30
2018-10-09T19:10:27.676Z,14.20
2018-10-09T19:12:56.421Z,14.20
2018-10-09T19:15:24.977Z,14.20
2018-10-09T19:17:53.532Z,14.20
2018-10-09T19:20:22.195Z,14.10
2018-10-09T19:22:50.742Z,14.10
2018-10-09T19:25:19.670Z,14.10
2018-10-09T19:27:48.649Z,14.00
2018-10-09T19:30:17.487Z,14.00
2018-10-09T19:32:46.276Z,13.90
2018-10-09T19:35:15.527Z,13.90
2018-10-09T19:37:44.961Z,13.90
2018-10-09T19:40:13.511Z,13.90
2018-10-09T19:42:42.061Z,13.80
2018-10-09T19:45:10.661Z,13.80
2018-10-09T19:47:39.283Z,13.80
2018-10-09T19:50:08.946Z,13.80
2018-10-09T19:52:37.947Z,13.80
2018-10-09T19:55:06.848Z,13.70
2018-10-09T19:57:35.448Z,13.70
2018-10-09T20:00:04.467Z,13.70
2018-10-09T20:02:33.121Z,13.60
2018-10-09T20:05:01.799Z,13.60
2018-10-09T20:07:31.502Z,13.60
2018-10-09T20:10:00.366Z,13.60
2018-10-09T20:12:29.057Z,13.50
2018-10-09T20:14:57.877Z,13.50
2018-10-09T20:17:26.570Z,13.40
2018-10-09T20:19:55.273Z,13.40
2018-10-09T20:22:24.078Z,13.40
2018-10-09T20:24:52.761Z,13.40
2018-10-09T20:27:22.157Z,13.30
2018-10-09T20:29:51.148Z,13.30
2018-10-09T20:32:19.871Z,13.20
2018-10-09T20:34:50.128Z,13.20
2018-10-09T20:37:24.650Z,13.20
2018-10-09T20:39:54.246Z,13.10
2018-10-09T20:42:22.977Z,13.10
2018-10-09T20:44:51.656Z,13.10
2018-10-09T20:47:25.514Z,13.10
2018-10-09T20:49:56.147Z,13.10
2018-10-09T20:52:27.373Z,13.00
2018-10-09T20:54:56.088Z,13.00
2018-10-09T20:57:25.051Z,13.00
2018-10-09T20:59:53.770Z,13.00
2018-10-09T21:02:22.393Z,13.00
2018-10-09T21:04:51.154Z,13.00
2018-10-09T21:07:20.117Z,13.00
2018-10-09T21:13:07.829Z,12.90
2018-10-09T21:30:54.208Z,12.90
2018-10-09T21:33:22.871Z,12.70
2018-10-09T21:35:51.632Z,12.70
2018-10-09T21:38:20.499Z,12.70
2018-10-09T21:40:49.466Z,12.60
2018-10-09T21:43:18.125Z,12.60
2018-10-09T21:45:46.783Z,12.60
2018-10-09T21:48:16.060Z,12.60
2018-10-09T21:50:44.730Z,12.60
2018-10-09T21:53:14.298Z,12.60
2018-10-09T21:55:42.908Z,12.60
2018-10-09T21:58:11.539Z,12.60
2018-10-09T22:00:45.565Z,12.70
2018-10-09T22:03:14.745Z,12.60
2018-10-09T22:05:43.475Z,12.60
2018-10-09T22:08:12.206Z,12.50
2018-10-09T22:10:41.449Z,12.50
2018-10-09T22:13:11.626Z,12.50
2018-10-09T22:15:40.171Z,12.50
2018-10-09T22:18:08.790Z,12.40
2018-10-09T22:20:37.314Z,12.40
2018-10-09T22:23:07.342Z,12.40
2018-10-09T22:25:35.963Z,12.40
2018-10-09T22:28:04.923Z,12.40
2018-10-09T22:30:36.957Z,12.40
2018-10-09T22:33:07.238Z,12.30
2018-10-09T22:35:35.869Z,12.20
2018-10-09T22:38:04.480Z,12.20
2018-10-09T22:40:34.036Z,12.10
2018-10-09T22:43:02.772Z,12.10
2018-10-09T22:45:31.763Z,12.10
2018-10-09T22:48:00.659Z,12.00
2018-10-09T22:50:29.554Z,12.00
2018-10-09T22:52:58.214Z,12.00
2018-10-09T22:55:26.894Z,12.00
2018-10-09T22:57:56.115Z,11.90
2018-10-09T23:00:24.782Z,11.90
2018-10-09T23:02:53.350Z,11.90
2018-10-09T23:05:22.023Z,11.90
2018-10-09T23:07:51.875Z,11.90
2018-10-09T23:10:20.647Z,11.80
2018-10-09T23:12:50.959Z,11.80
2018-10-09T23:15:19.748Z,11.80
2018-10-09T23:17:48.509Z,11.80
2018-10-09T23:20:17.761Z,11.80
2018-10-09T23:22:46.447Z,11.80
2018-10-09T23:25:16.084Z,11.80
2018-10-09T23:27:44.746Z,11.70
2018-10-09T23:30:13.758Z,11.70
2018-10-09T23:32:42.306Z,11.70
2018-10-09T23:35:11.146Z,11.70
2018-10-09T23:37:39.759Z,11.70
2018-10-09T23:40:08.379Z,11.70
2018-10-09T23:42:36.992Z,11.70
2018-10-09T23:45:05.777Z,11.70
2018-10-09T23:47:34.415Z,11.70
2018-10-09T23:50:02.992Z,11.70
2018-10-09T23:52:31.542Z,11.70
2018-10-09T23:55:00.271Z,11.60
2018-10-09T23:57:30.346Z,11.60
2018-10-09T23:59:58.865Z,11.50
